Detall de PIREP

Printer-friendly versionPDF version

[2017/11/17 08:04:00]
Flight IATA:CT2107
Pilot Number:041
Company ICAO:CAT
Aircraft Type:B763/F
PAX:189
Departing Airport: LEMD
Destination Airport: LEVC
Alternate Airport:LEBL
Online: VATSIM
Route:NAND2N NANDO M871 MABUX MABU1C
Flight Level:FL240
No Slew and time accel
No pause
Crash detect
Detect pilot in Cockpit between each 30 and 45 minutes
08:04 Zero fuel Weight: 202400 Lbs, Fuel Weight: 4406 Lbs
08:04 VATSIM:LEMD 160730Z 01004KT CAVOK M01/M02 Q1020 NOSIG
08:04 VATSIM:LEVC 160730Z 29004KT CAVOK 05/M01 Q1020 NOSIG
08:04 VOICE CATALONIAN
08:28 Parking Brakes off
08:37 Take-off
08:37 Take off Weight: 336703 Lbs
08:37 Wind: 254º @ 002 Knots Heading: 320º
08:37 POS N40º 29´ 20´´ W003º 33´ 07´´
08:38 Flaps:2 at 188 Knots
08:38 Gear Up: 192 Knots
08:38 Flaps:1 at 203 Knots
08:38 Flaps:0 at 217 Knots
08:45 TOC
08:45 Fuel Weight: 67948 Lb
08:53 Wind:096º@027 Knots Heading: 114º Ground Speed: 428 Knots Altitude 24209 ft
09:00 TOD
09:00 Fuel Weight: 65427 Lb
09:00 TOC
09:00 Fuel Weight: 65420 Lb
09:01 TOD
09:01 Fuel Weight: 65311 Lb
09:08 Wind:110º@019 Knots Heading: 110º Ground Speed: 345 Knots Altitude 15741 ft
09:17 Flaps:1 at 218 Knots
09:18 Flaps:2 at 211 Knots
09:18 Flaps:3 at 192 Knots
09:19 Flaps:4 at 179 Knots
09:21 Flaps:5 at 179 Knots
09:22 Flaps:6 at 176 Knots
09:22 Gear Down: 176 Knots
09:23 Wind:031º@002 Knots Heading: 298º Ground Speed: 168 Knots Altitude 2864 ft
09:23 Flaps:7 at 161 Knots
09:26 TouchDown:Rate -113 ft/min Speed: 148 Knots
09:26 VATSIM:LEVC 160900Z VRB01KT CAVOK 11/M01 Q1021 NOSIG
09:26 Land
09:26 Wind:028º@002 Knots
09:26 Heading: 296º
09:26 Flight Duration: 00:48
09:26 Landing Weight: 327744 Lbs
09:26 POS N39º 29´ 35´´ W000º 29´ 31´´
09:33 Parking brakes on
09:33 Block to Block Duration: 01:05
09:33 Final Fuel: 61746 Lbls
09:33 Spent Fuel: 878650019 Lbls
09:33 Flight Length: 270 NM
09:33 TOD Land Length: 117 NM

Exportar CSV

Powered by Drupal - Modified by Danger4k